createdAt,value
2023-05-06T00:01:20.364Z,11.61
2023-05-06T00:03:48.578Z,11.85
2023-05-06T00:06:15.635Z,11.89
2023-05-06T00:08:42.710Z,11.82
2023-05-06T00:11:09.892Z,11.73
2023-05-06T00:13:38.152Z,11.76
2023-05-06T00:16:05.518Z,11.70
2023-05-06T00:18:32.570Z,11.75
2023-05-06T00:20:59.368Z,11.71
2023-05-06T00:23:26.185Z,11.75
2023-05-06T00:25:54.855Z,11.56
2023-05-06T00:28:22.252Z,11.69
2023-05-06T00:30:49.165Z,11.53
2023-05-06T00:33:16.124Z,11.66
2023-05-06T00:35:43.067Z,11.65
2023-05-06T00:38:12.873Z,11.63
2023-05-06T00:40:40.700Z,11.63
2023-05-06T00:43:07.658Z,11.58
2023-05-06T00:45:35.162Z,11.56
2023-05-06T00:48:04.131Z,11.52
2023-05-06T00:50:33.306Z,11.44
2023-05-06T00:53:01.843Z,11.39
2023-05-06T00:55:28.962Z,11.37
2023-05-06T00:57:56.056Z,11.38
2023-05-06T01:00:23.126Z,11.31
2023-05-06T01:02:50.156Z,11.31
2023-05-06T01:05:19.248Z,11.27
2023-05-06T01:07:55.270Z,11.21
2023-05-06T01:10:34.014Z,11.24
2023-05-06T01:13:12.318Z,11.27
2023-05-06T01:15:45.834Z,11.25
2023-05-06T01:18:22.707Z,11.23
2023-05-06T01:20:52.663Z,11.32
2023-05-06T01:23:20.290Z,11.25
2023-05-06T01:25:47.181Z,11.20
2023-05-06T01:28:14.767Z,11.12
2023-05-06T01:31:05.584Z,11.12
2023-05-06T01:33:35.478Z,11.12
2023-05-06T01:36:12.970Z,11.08
2023-05-06T01:39:12.337Z,11.12
2023-05-06T01:41:41.695Z,11.07
2023-05-06T01:44:10.914Z,11.05
2023-05-06T01:46:37.912Z,11.08
2023-05-06T01:49:11.412Z,11.04
2023-05-06T01:51:39.037Z,11.12
2023-05-06T01:54:06.516Z,11.03
2023-05-06T01:56:33.407Z,10.77
2023-05-06T01:59:00.485Z,10.82
2023-05-06T02:01:27.587Z,10.83
2023-05-06T02:03:54.860Z,10.83
2023-05-06T02:06:21.807Z,10.78
2023-05-06T02:08:49.524Z,10.70
2023-05-06T02:11:16.485Z,10.74
2023-05-06T02:13:43.535Z,10.66
2023-05-06T02:16:10.561Z,10.62
2023-05-06T02:18:37.496Z,10.51
2023-05-06T02:21:05.374Z,10.56
2023-05-06T02:23:32.502Z,10.56
2023-05-06T02:25:59.467Z,10.59
2023-05-06T02:28:26.650Z,10.60
2023-05-06T02:30:57.402Z,10.58
2023-05-06T02:33:25.020Z,10.59
2023-05-06T02:35:51.908Z,10.61
2023-05-06T02:38:19.847Z,10.58
2023-05-06T02:40:47.092Z,10.50
2023-05-06T02:43:13.920Z,10.40
2023-05-06T02:45:41.047Z,10.57
2023-05-06T02:48:07.988Z,10.51
2023-05-06T02:50:36.245Z,10.50
2023-05-06T02:53:03.587Z,10.47
2023-05-06T02:55:30.706Z,10.31
2023-05-06T02:57:57.567Z,10.42
2023-05-06T03:00:24.414Z,10.43
2023-05-06T03:02:51.879Z,10.41
2023-05-06T03:05:19.026Z,10.36
2023-05-06T03:07:45.837Z,10.41
2023-05-06T03:10:12.818Z,10.43
2023-05-06T03:12:39.966Z,10.41
2023-05-06T03:15:07.356Z,10.29
2023-05-06T03:17:34.388Z,10.40
2023-05-06T03:20:01.334Z,10.36
2023-05-06T03:22:28.245Z,10.30
2023-05-06T03:24:55.045Z,10.11
2023-05-06T03:27:21.909Z,10.23
2023-05-06T03:29:48.794Z,10.26
2023-05-06T03:32:16.054Z,10.33
2023-05-06T03:34:43.008Z,10.29
2023-05-06T03:37:09.987Z,10.25
2023-05-06T03:39:36.963Z,10.24
2023-05-06T03:42:04.066Z,10.28
2023-05-06T03:44:31.169Z,10.27
2023-05-06T03:46:58.011Z,10.27
2023-05-06T03:49:24.924Z,10.30
2023-05-06T03:51:53.384Z,10.20
2023-05-06T03:54:20.255Z,10.15
2023-05-06T03:56:47.078Z,10.08
2023-05-06T03:59:14.182Z,10.14
2023-05-06T04:01:42.146Z,10.23
2023-05-06T04:04:09.220Z,10.33
2023-05-06T04:06:36.122Z,10.42
2023-05-06T04:09:04.391Z,10.48
2023-05-06T04:11:31.773Z,10.45
2023-05-06T04:13:58.718Z,10.56
2023-05-06T04:16:25.604Z,10.40
2023-05-06T04:18:52.815Z,10.55
2023-05-06T04:21:19.775Z,10.63
2023-05-06T04:23:46.635Z,10.71
2023-05-06T04:26:13.480Z,10.74
2023-05-06T04:28:40.925Z,10.84
2023-05-06T04:31:09.001Z,10.95
2023-05-06T04:33:35.952Z,10.96
2023-05-06T04:36:03.536Z,11.10
2023-05-06T04:38:32.159Z,11.16
2023-05-06T04:40:59.654Z,11.26
2023-05-06T04:43:29.874Z,11.39
2023-05-06T04:45:57.388Z,11.48
2023-05-06T04:48:24.360Z,11.55
2023-05-06T04:50:51.367Z,11.57
2023-05-06T04:53:18.356Z,11.71
2023-05-06T04:55:45.187Z,11.83
2023-05-06T04:58:12.123Z,11.92
2023-05-06T05:00:39.570Z,12.00
2023-05-06T05:03:06.810Z,12.03
2023-05-06T05:05:36.318Z,11.93
2023-05-06T05:08:03.363Z,11.86
2023-05-06T05:10:30.379Z,11.96
2023-05-06T05:12:58.377Z,11.85
2023-05-06T05:15:25.338Z,12.16
2023-05-06T05:17:52.230Z,12.31
2023-05-06T05:20:19.107Z,12.28
2023-05-06T05:22:46.444Z,12.44
2023-05-06T05:25:13.615Z,12.54
2023-05-06T05:27:42.299Z,12.67
2023-05-06T05:30:09.701Z,12.78
2023-05-06T05:32:36.828Z,12.89
2023-05-06T05:35:04.058Z,12.91
2023-05-06T05:37:31.269Z,12.98
2023-05-06T05:39:58.464Z,13.03
2023-05-06T05:42:25.454Z,13.14
2023-05-06T05:44:52.709Z,13.09
2023-05-06T05:47:19.490Z,13.43
2023-05-06T05:49:46.300Z,13.52
2023-05-06T05:52:13.190Z,13.60
2023-05-06T05:54:40.088Z,13.85
2023-05-06T05:57:06.954Z,14.09
2023-05-06T05:59:34.022Z,14.27
2023-05-06T06:02:01.100Z,14.51
2023-05-06T06:04:28.150Z,14.68
2023-05-06T06:06:58.137Z,14.90
2023-05-06T06:09:25.025Z,15.12
2023-05-06T06:11:52.346Z,15.34
2023-05-06T06:14:19.267Z,15.53
2023-05-06T06:16:46.403Z,15.78
2023-05-06T06:19:14.872Z,16.05
2023-05-06T06:21:41.855Z,16.21
2023-05-06T06:24:08.978Z,16.24
2023-05-06T06:26:35.873Z,16.55
2023-05-06T06:29:02.929Z,16.70
2023-05-06T06:31:29.896Z,16.86
2023-05-06T06:33:56.909Z,17.03
2023-05-06T06:36:23.751Z,17.16
2023-05-06T06:38:50.642Z,17.25
2023-05-06T06:41:17.666Z,17.35
2023-05-06T06:43:44.704Z,17.43
2023-05-06T06:46:11.637Z,17.42
2023-05-06T06:48:38.978Z,17.09
2023-05-06T06:51:06.111Z,17.13
2023-05-06T06:53:33.208Z,17.31
2023-05-06T06:56:00.187Z,17.06
2023-05-06T06:58:27.704Z,17.07
2023-05-06T07:00:54.625Z,17.05
2023-05-06T07:03:21.528Z,17.08
2023-05-06T07:05:48.381Z,17.11
2023-05-06T07:08:17.289Z,17.02
2023-05-06T07:10:44.422Z,17.26
2023-05-06T07:13:11.671Z,17.27
2023-05-06T07:15:38.772Z,17.54
2023-05-06T07:18:06.054Z,17.73
2023-05-06T07:20:33.083Z,17.64
2023-05-06T07:22:59.973Z,17.84
2023-05-06T07:25:28.092Z,17.93
2023-05-06T07:27:55.350Z,18.10
2023-05-06T07:30:23.340Z,18.46
2023-05-06T07:32:50.817Z,18.85
2023-05-06T07:35:18.199Z,18.69
2023-05-06T07:37:48.305Z,18.70
2023-05-06T07:40:15.324Z,19.07
2023-05-06T07:42:43.087Z,19.02
2023-05-06T07:45:11.197Z,19.11
2023-05-06T07:47:38.663Z,19.07
2023-05-06T07:50:06.958Z,19.43
2023-05-06T07:52:34.223Z,19.67
2023-05-06T07:55:01.900Z,19.70
2023-05-06T07:57:29.092Z,19.45
2023-05-06T07:59:56.112Z,19.45
2023-05-06T08:02:23.072Z,19.47
2023-05-06T08:04:51.617Z,19.55
2023-05-06T08:07:19.377Z,19.71
2023-05-06T08:09:46.506Z,19.91
2023-05-06T08:12:13.746Z,20.08
2023-05-06T08:14:41.157Z,20.29
2023-05-06T08:17:07.981Z,20.40
2023-05-06T08:19:35.005Z,20.66
2023-05-06T08:22:02.155Z,20.98
2023-05-06T08:24:29.646Z,21.13
2023-05-06T08:26:56.554Z,21.33
2023-05-06T08:29:23.411Z,21.48
2023-05-06T08:31:50.648Z,21.40
2023-05-06T08:34:19.257Z,21.15
2023-05-06T08:36:46.101Z,21.10
2023-05-06T08:41:47.091Z,21.76
2023-05-06T08:44:17.749Z,22.14
2023-05-06T08:46:46.198Z,22.13
2023-05-06T08:49:13.071Z,22.78
2023-05-06T08:51:43.747Z,22.85
2023-05-06T08:54:13.794Z,23.00
2023-05-06T08:56:45.272Z,23.80
2023-05-06T08:59:13.848Z,23.52
2023-05-06T09:01:41.418Z,24.26
2023-05-06T09:04:09.160Z,23.64
2023-05-06T09:06:36.175Z,24.07
2023-05-06T09:09:03.516Z,24.07
2023-05-06T09:11:31.139Z,25.16
2023-05-06T09:14:17.726Z,25.04
2023-05-06T09:16:46.748Z,24.71
2023-05-06T09:19:14.938Z,25.47
2023-05-06T09:21:44.125Z,26.13
2023-05-06T09:24:12.977Z,25.34
2023-05-06T09:26:42.639Z,24.63
2023-05-06T09:29:09.991Z,25.79
2023-05-06T09:31:42.671Z,26.35
2023-05-06T09:34:10.309Z,26.76
2023-05-06T09:36:37.481Z,26.19
2023-05-06T09:39:05.532Z,26.91
2023-05-06T09:41:33.409Z,26.43
2023-05-06T09:44:01.453Z,25.87
2023-05-06T09:46:29.341Z,26.02
2023-05-06T09:48:57.619Z,26.34
2023-05-06T09:51:27.901Z,26.97
2023-05-06T09:53:56.538Z,26.63
2023-05-06T09:56:23.866Z,26.82
2023-05-06T09:58:52.706Z,26.37
2023-05-06T10:01:32.722Z,27.36
2023-05-06T10:04:09.502Z,27.41
2023-05-06T10:06:39.810Z,27.98
2023-05-06T10:09:10.616Z,29.06
2023-05-06T10:11:38.823Z,28.78
2023-05-06T10:14:07.285Z,29.38
2023-05-06T10:16:36.355Z,29.08
2023-05-06T10:19:06.781Z,29.14
2023-05-06T10:21:39.134Z,28.66
2023-05-06T10:24:09.166Z,28.51
2023-05-06T10:26:37.615Z,27.25
2023-05-06T10:29:10.044Z,25.98
2023-05-06T10:31:48.344Z,25.82
2023-05-06T10:34:18.846Z,25.58
2023-05-06T10:36:46.079Z,25.71
2023-05-06T10:39:14.359Z,24.65
2023-05-06T10:41:41.644Z,24.70
2023-05-06T10:44:10.152Z,25.04
2023-05-06T10:47:03.397Z,24.68
2023-05-06T10:49:30.312Z,24.52
2023-05-06T10:52:12.092Z,25.24
2023-05-06T10:54:50.933Z,24.93
2023-05-06T10:57:18.103Z,24.82
2023-05-06T10:59:47.047Z,25.08
2023-05-06T11:02:16.849Z,25.21
2023-05-06T11:04:50.560Z,25.18
2023-05-06T11:07:26.759Z,24.94
2023-05-06T11:09:59.247Z,25.10
2023-05-06T11:12:46.263Z,25.30
2023-05-06T11:15:27.016Z,25.37
2023-05-06T11:17:55.946Z,24.85
2023-05-06T11:20:26.560Z,25.29
2023-05-06T11:22:53.718Z,26.49
2023-05-06T11:25:41.321Z,27.18
2023-05-06T11:28:13.663Z,26.87
2023-05-06T11:30:53.619Z,26.19
2023-05-06T11:33:24.561Z,25.53
2023-05-06T11:35:51.433Z,24.74
2023-05-06T11:38:19.002Z,24.34
2023-05-06T11:40:46.180Z,24.54
2023-05-06T11:43:16.693Z,24.04
2023-05-06T11:45:46.546Z,23.95
2023-05-06T11:48:17.867Z,23.97
2023-05-06T11:50:49.347Z,23.86
2023-05-06T11:53:21.485Z,23.43
2023-05-06T11:55:49.861Z,23.46
2023-05-06T11:58:23.556Z,23.43
2023-05-06T12:00:54.362Z,23.41
2023-05-06T12:03:22.230Z,23.32
2023-05-06T12:05:50.456Z,23.27
2023-05-06T12:08:27.245Z,23.12
2023-05-06T12:10:59.462Z,23.05
2023-05-06T12:13:27.967Z,23.01
2023-05-06T12:15:56.191Z,23.09
2023-05-06T12:18:24.095Z,23.05
2023-05-06T12:20:54.222Z,22.83
2023-05-06T12:23:24.931Z,22.95
2023-05-06T12:26:04.130Z,22.89
2023-05-06T12:28:33.126Z,22.97
2023-05-06T12:31:02.032Z,23.09
2023-05-06T12:33:44.121Z,22.96
2023-05-06T12:36:11.216Z,23.13
2023-05-06T12:38:38.266Z,23.00
2023-05-06T12:41:07.141Z,22.86
2023-05-06T12:43:33.992Z,22.99
2023-05-06T12:46:05.761Z,23.02
2023-05-06T12:48:32.864Z,23.14
2023-05-06T12:50:59.977Z,23.09
2023-05-06T12:53:35.543Z,22.86
2023-05-06T12:56:02.410Z,22.82
2023-05-06T12:58:29.643Z,22.62
2023-05-06T13:00:56.518Z,22.45
2023-05-06T13:03:23.545Z,22.56
2023-05-06T13:05:51.946Z,22.35
2023-05-06T13:08:19.022Z,22.22
2023-05-06T13:10:45.935Z,21.88
2023-05-06T13:13:12.937Z,21.62
2023-05-06T13:15:39.961Z,21.36
2023-05-06T13:18:07.181Z,21.18
2023-05-06T13:20:34.108Z,21.20
2023-05-06T13:23:01.059Z,21.24
2023-05-06T13:25:27.850Z,21.25
2023-05-06T13:27:54.721Z,21.06
2023-05-06T13:30:21.841Z,21.01
2023-05-06T13:32:48.887Z,20.68
2023-05-06T13:35:15.828Z,20.75
2023-05-06T13:37:42.706Z,20.59
2023-05-06T13:40:10.367Z,20.31
2023-05-06T13:42:38.704Z,20.26
2023-05-06T13:45:06.590Z,19.94
2023-05-06T13:47:33.518Z,19.80
2023-05-06T13:50:00.909Z,19.75
2023-05-06T13:52:28.048Z,19.68
2023-05-06T13:54:55.328Z,19.78
2023-05-06T13:57:24.447Z,19.62
2023-05-06T13:59:51.860Z,19.48
2023-05-06T14:02:18.842Z,19.35
2023-05-06T14:04:45.770Z,19.13
2023-05-06T14:07:12.618Z,19.22
2023-05-06T14:09:39.546Z,19.21
2023-05-06T14:12:06.475Z,19.03
2023-05-06T14:14:33.578Z,18.83
2023-05-06T14:17:00.428Z,18.55
2023-05-06T14:19:27.308Z,18.62
2023-05-06T14:21:54.310Z,18.42
2023-05-06T14:24:21.287Z,18.22
2023-05-06T14:26:48.174Z,18.24
2023-05-06T14:29:15.560Z,18.15
2023-05-06T14:31:42.704Z,18.04
2023-05-06T14:34:09.609Z,18.17
2023-05-06T14:36:36.493Z,17.92
2023-05-06T14:39:03.545Z,17.90
2023-05-06T14:41:35.498Z,18.08
2023-05-06T14:44:02.594Z,17.95
2023-05-06T14:46:29.775Z,18.01
2023-05-06T14:48:57.449Z,18.21
2023-05-06T14:51:24.322Z,18.29
2023-05-06T14:53:51.231Z,18.34
2023-05-06T14:56:18.199Z,18.44
2023-05-06T14:58:46.203Z,18.57
2023-05-06T15:01:13.700Z,18.78
2023-05-06T15:03:40.741Z,18.90
2023-05-06T15:06:07.977Z,19.08
2023-05-06T15:08:34.927Z,19.06
2023-05-06T15:11:04.256Z,19.12
2023-05-06T15:13:31.411Z,19.09
2023-05-06T15:15:58.418Z,18.85
2023-05-06T15:18:25.680Z,18.98
2023-05-06T15:20:55.146Z,18.83
2023-05-06T15:23:22.445Z,19.30
2023-05-06T15:25:49.346Z,20.16
2023-05-06T15:28:16.461Z,21.52
2023-05-06T15:30:43.493Z,21.93
2023-05-06T15:33:10.696Z,21.99
2023-05-06T15:35:37.560Z,21.72
2023-05-06T15:38:04.459Z,21.27
2023-05-06T15:40:31.504Z,21.86
2023-05-06T15:42:58.573Z,21.81
2023-05-06T15:45:26.050Z,21.23
2023-05-06T15:47:54.232Z,21.17
2023-05-06T15:50:32.024Z,21.05
2023-05-06T15:53:01.302Z,20.67
2023-05-06T15:55:28.335Z,20.46
2023-05-06T15:57:55.186Z,20.59
2023-05-06T16:00:22.335Z,20.36
2023-05-06T16:02:49.440Z,20.62
2023-05-06T16:05:16.754Z,20.70
2023-05-06T16:07:43.719Z,20.64
2023-05-06T16:10:11.024Z,20.59
2023-05-06T16:12:41.031Z,20.08
2023-05-06T16:15:08.490Z,19.80
2023-05-06T16:17:37.842Z,19.99
2023-05-06T16:20:05.645Z,20.04
2023-05-06T16:22:32.700Z,20.08
2023-05-06T16:24:59.528Z,19.86
2023-05-06T16:27:28.336Z,20.04
2023-05-06T16:29:55.645Z,19.95
2023-05-06T16:32:23.701Z,19.83
2023-05-06T16:34:50.822Z,19.51
2023-05-06T16:37:17.715Z,19.30
2023-05-06T16:39:44.664Z,19.07
2023-05-06T16:42:11.535Z,18.90
2023-05-06T16:44:38.314Z,18.81
2023-05-06T16:47:05.336Z,18.72
2023-05-06T16:49:33.635Z,18.50
2023-05-06T16:52:00.882Z,18.44
2023-05-06T16:54:28.134Z,18.40
2023-05-06T16:56:55.173Z,18.39
2023-05-06T16:59:22.591Z,18.37
2023-05-06T17:01:50.408Z,18.33
2023-05-06T17:04:17.691Z,18.34
2023-05-06T17:06:44.525Z,18.32
2023-05-06T17:09:11.402Z,18.27
2023-05-06T17:11:38.372Z,18.27
2023-05-06T17:14:05.809Z,18.22
2023-05-06T17:16:32.739Z,18.25
2023-05-06T17:18:59.643Z,18.21
2023-05-06T17:21:27.956Z,18.24
2023-05-06T17:23:55.118Z,18.01
2023-05-06T17:26:22.611Z,18.21
2023-05-06T17:28:50.991Z,18.16
2023-05-06T17:31:18.817Z,18.18
2023-05-06T17:33:46.069Z,18.13
2023-05-06T17:36:13.880Z,18.11
2023-05-06T17:38:40.857Z,18.07
2023-05-06T17:41:07.744Z,17.86
2023-05-06T17:43:34.778Z,17.64
2023-05-06T17:46:01.762Z,18.03
2023-05-06T17:48:28.774Z,17.96
2023-05-06T17:51:02.978Z,17.97
2023-05-06T17:53:32.361Z,17.74
2023-05-06T17:55:59.259Z,17.92
2023-05-06T17:58:26.188Z,17.90
2023-05-06T18:00:53.108Z,17.76
2023-05-06T18:03:20.058Z,17.85
2023-05-06T18:05:47.168Z,17.76
2023-05-06T18:08:14.358Z,17.80
2023-05-06T18:10:41.620Z,17.79
2023-05-06T18:13:08.974Z,17.76
2023-05-06T18:15:35.873Z,17.66
2023-05-06T18:18:03.088Z,17.70
2023-05-06T18:20:30.184Z,17.27
2023-05-06T18:22:58.654Z,17.50
2023-05-06T18:25:26.068Z,17.58
2023-05-06T18:27:53.111Z,17.51
2023-05-06T18:30:19.999Z,17.44
2023-05-06T18:32:48.241Z,17.20
2023-05-06T18:35:17.108Z,17.12
2023-05-06T18:37:44.010Z,17.17
2023-05-06T18:40:11.425Z,17.26
2023-05-06T18:42:38.327Z,17.26
2023-05-06T18:45:07.045Z,17.24
2023-05-06T18:47:34.167Z,17.21
2023-05-06T18:50:01.198Z,16.76
2023-05-06T18:52:28.148Z,17.14
2023-05-06T18:54:55.022Z,17.16
2023-05-06T18:57:21.992Z,17.10
2023-05-06T18:59:48.854Z,17.00
2023-05-06T19:02:15.838Z,17.10
2023-05-06T19:04:43.872Z,17.13
2023-05-06T19:07:11.249Z,17.11
2023-05-06T19:09:38.644Z,17.08
2023-05-06T19:12:05.718Z,17.09
2023-05-06T19:14:34.649Z,17.09
2023-05-06T19:17:03.767Z,16.98
2023-05-06T19:19:31.321Z,17.11
2023-05-06T19:21:59.123Z,17.02
2023-05-06T19:24:26.348Z,17.03
2023-05-06T19:26:53.344Z,17.07
2023-05-06T19:29:20.319Z,17.00
2023-05-06T19:31:47.626Z,17.02
2023-05-06T19:34:14.561Z,17.02
2023-05-06T19:36:47.714Z,16.95
2023-05-06T19:39:14.591Z,16.88
2023-05-06T19:41:42.011Z,16.92
2023-05-06T19:44:08.883Z,16.85
2023-05-06T19:46:36.083Z,16.83
2023-05-06T19:49:03.098Z,16.87
2023-05-06T19:51:30.253Z,16.69
2023-05-06T19:53:57.120Z,16.84
2023-05-06T19:56:24.097Z,16.70
2023-05-06T19:58:53.805Z,16.82
2023-05-06T20:01:23.926Z,16.79
2023-05-06T20:03:51.271Z,16.73
2023-05-06T20:06:18.254Z,16.77
2023-05-06T20:08:45.211Z,16.68
2023-05-06T20:11:12.351Z,16.61
2023-05-06T20:13:39.444Z,16.67
2023-05-06T20:16:06.840Z,16.59
2023-05-06T20:18:33.762Z,16.41
2023-05-06T20:21:00.998Z,16.59
2023-05-06T20:23:27.949Z,16.58
2023-05-06T20:25:54.966Z,16.62
2023-05-06T20:28:21.910Z,16.47
2023-05-06T20:30:48.840Z,16.54
2023-05-06T20:33:15.802Z,16.40
2023-05-06T20:35:42.736Z,16.02
2023-05-06T20:38:10.956Z,16.24
2023-05-06T20:40:37.874Z,16.14
2023-05-06T20:43:04.742Z,15.94
2023-05-06T20:45:31.716Z,15.97
2023-05-06T20:47:58.917Z,16.08
2023-05-06T20:50:28.584Z,16.10
2023-05-06T20:52:55.752Z,15.83
2023-05-06T20:55:26.041Z,15.94
2023-05-06T20:57:53.165Z,16.04
2023-05-06T21:00:20.620Z,16.13
2023-05-06T21:02:47.698Z,16.16
2023-05-06T21:05:14.819Z,16.18
2023-05-06T21:07:41.928Z,16.22
2023-05-06T21:10:09.920Z,16.23
2023-05-06T21:12:37.136Z,16.21
2023-05-06T21:15:04.889Z,16.17
2023-05-06T21:17:31.938Z,16.16
2023-05-06T21:19:58.959Z,16.13
2023-05-06T21:22:26.046Z,16.12
2023-05-06T21:24:53.040Z,16.09
2023-05-06T21:27:19.904Z,16.00
2023-05-06T21:29:46.856Z,15.94
2023-05-06T21:32:14.018Z,15.85
2023-05-06T21:34:40.938Z,15.78
2023-05-06T21:37:07.813Z,15.54
2023-05-06T21:39:34.714Z,15.60
2023-05-06T21:42:02.042Z,15.54
2023-05-06T21:44:29.022Z,15.39
2023-05-06T21:46:56.345Z,15.39
2023-05-06T21:49:23.479Z,15.36
2023-05-06T21:51:50.538Z,15.27
2023-05-06T21:54:17.473Z,15.16
2023-05-06T21:56:44.979Z,15.03
2023-05-06T21:59:11.943Z,15.00
2023-05-06T22:01:39.082Z,14.97
2023-05-06T22:04:11.485Z,14.96
2023-05-06T22:06:39.447Z,15.03
2023-05-06T22:09:09.439Z,15.03
2023-05-06T22:11:38.323Z,14.97
2023-05-06T22:14:06.784Z,14.86
2023-05-06T22:16:35.598Z,14.83
2023-05-06T22:19:03.951Z,14.82
2023-05-06T22:21:32.033Z,14.79
2023-05-06T22:23:59.741Z,14.78
2023-05-06T22:26:30.193Z,14.08
2023-05-06T22:28:57.105Z,14.81
2023-05-06T22:31:24.775Z,14.72
2023-05-06T22:33:55.422Z,14.85
2023-05-06T22:36:22.540Z,14.74
2023-05-06T22:38:49.753Z,14.74
2023-05-06T22:41:17.728Z,14.73
2023-05-06T22:43:44.815Z,14.81
2023-05-06T22:46:11.657Z,14.80
2023-05-06T22:48:38.661Z,14.77
2023-05-06T22:51:06.481Z,14.81
2023-05-06T22:53:33.381Z,14.80
2023-05-06T22:56:01.072Z,14.73
2023-05-06T22:58:28.458Z,14.86
2023-05-06T23:00:55.593Z,14.90
2023-05-06T23:03:23.272Z,14.97
2023-05-06T23:05:50.151Z,14.86
2023-05-06T23:08:17.221Z,14.92
2023-05-06T23:10:44.230Z,14.89
2023-05-06T23:13:12.115Z,14.95
2023-05-06T23:15:40.039Z,14.94
2023-05-06T23:18:07.385Z,14.85
2023-05-06T23:20:34.434Z,14.91
2023-05-06T23:23:01.719Z,14.85
2023-05-06T23:25:28.649Z,14.81
2023-05-06T23:27:55.630Z,14.82
2023-05-06T23:30:22.643Z,14.85
2023-05-06T23:32:49.689Z,14.85
2023-05-06T23:35:16.669Z,14.77
2023-05-06T23:37:43.542Z,14.73
2023-05-06T23:40:12.655Z,14.69
2023-05-06T23:42:40.113Z,14.60
2023-05-06T23:45:08.129Z,14.56
2023-05-06T23:47:35.284Z,14.43
2023-05-06T23:50:02.145Z,14.39
2023-05-06T23:52:29.159Z,14.32
2023-05-06T23:54:56.531Z,14.25
2023-05-06T23:57:23.418Z,14.17
2023-05-06T23:59:50.761Z,14.24
